OYGEA EKRK-ESSA
Flight info
| Callsign | OYGEA |
|---|---|
| Flight time | N/A |
| Altitude | 31000 |
| Route | KEMAX N851 ROXEN DCT BEDOS N851 PELUP Z226 NILUG |
| Aircraft | STAR/L-SDFGRWY/S |
Departure
| Time | 2026-04-26 10:06 |
|---|---|
| Airport | Copenhagen Roskilde Airport (EKRK) |
Arrival
| Time | N/A |
|---|---|
| Airport | Stockholm-Arlanda Airport (ESSA) |
| Time | Latitude | Longitude | Altitude | Speed | Heading |
|---|---|---|---|---|---|
| 2026-04-26 09:32 | 55.58917 | 12.12891 | 145 ft | 0 kts | 23° |
| 2026-04-26 09:57 | 55.58926 | 12.12898 | 145 ft | 7 kts | 23° |
| 2026-04-26 09:57 | 55.58936 | 12.12976 | 145 ft | 9 kts | 117° |
| 2026-04-26 09:57 | 55.58906 | 12.13081 | 145 ft | 10 kts | 116° |
| 2026-04-26 09:58 | 55.58876 | 12.13127 | 146 ft | 6 kts | 197° |
| 2026-04-26 09:58 | 55.58828 | 12.13086 | 145 ft | 9 kts | 206° |
| 2026-04-26 09:58 | 55.58772 | 12.13044 | 145 ft | 7 kts | 175° |
| 2026-04-26 09:58 | 55.58748 | 12.13110 | 145 ft | 6 kts | 116° |
| 2026-04-26 09:59 | 55.58738 | 12.13143 | 146 ft | 0 kts | 120° |
| 2026-04-26 09:59 | 55.58710 | 12.13241 | 149 ft | 15 kts | 116° |
| 2026-04-26 09:59 | 55.58671 | 12.13374 | 150 ft | 10 kts | 116° |
| 2026-04-26 10:00 | 55.58635 | 12.13507 | 146 ft | 10 kts | 115° |
| 2026-04-26 10:00 | 55.58605 | 12.13617 | 146 ft | 10 kts | 116° |
| 2026-04-26 10:00 | 55.58572 | 12.13734 | 145 ft | 9 kts | 116° |
| 2026-04-26 10:00 | 55.58544 | 12.13805 | 144 ft | 6 kts | 178° |
| 2026-04-26 10:01 | 55.58515 | 12.13783 | 143 ft | 2 kts | 206° |
| 2026-04-26 10:01 | 55.58514 | 12.13782 | 143 ft | 0 kts | 206° |
| 2026-04-26 10:04 | 55.58495 | 12.13765 | 143 ft | 11 kts | 206° |
| 2026-04-26 10:04 | 55.58426 | 12.13707 | 144 ft | 8 kts | 205° |
| 2026-04-26 10:04 | 55.58412 | 12.13657 | 143 ft | 1 kts | 297° |
| 2026-04-26 10:05 | 55.58493 | 12.13369 | 145 ft | 50 kts | 296° |
| 2026-04-26 10:05 | 55.58715 | 12.12575 | 142 ft | 94 kts | 297° |
| 2026-04-26 10:06 | 55.58982 | 12.11434 | 589 ft | 102 kts | 295° |
| 2026-04-26 10:06 | 55.59240 | 12.10265 | 1395 ft | 102 kts | 294° |
| 2026-04-26 10:06 | 55.59507 | 12.09016 | 2026 ft | 110 kts | 292° |
| 2026-04-26 10:06 | 55.59797 | 12.07671 | 2589 ft | 131 kts | 294° |
| 2026-04-26 10:07 | 55.60180 | 12.05974 | 2825 ft | 157 kts | 295° |
| 2026-04-26 10:07 | 55.60604 | 12.04148 | 2939 ft | 164 kts | 295° |
| 2026-04-26 10:07 | 55.61076 | 12.02205 | 3016 ft | 179 kts | 295° |
| 2026-04-26 10:07 | 55.61564 | 12.00227 | 3643 ft | 172 kts | 296° |
| 2026-04-26 10:08 | 55.62368 | 11.98763 | 4117 ft | 171 kts | 335° |
| 2026-04-26 10:08 | 55.63552 | 11.98713 | 4503 ft | 179 kts | 17° |
| 2026-04-26 10:08 | 55.64498 | 12.00124 | 4964 ft | 187 kts | 52° |
| 2026-04-26 10:08 | 55.65191 | 12.02080 | 5411 ft | 190 kts | 56° |
| 2026-04-26 10:09 | 55.65826 | 12.04156 | 5888 ft | 193 kts | 57° |
| 2026-04-26 10:09 | 55.66461 | 12.06244 | 6595 ft | 193 kts | 54° |
| 2026-04-26 10:09 | 55.67175 | 12.08258 | 7280 ft | 194 kts | 52° |
| 2026-04-26 10:09 | 55.67889 | 12.10311 | 7975 ft | 197 kts | 52° |
| 2026-04-26 10:10 | 55.68591 | 12.12417 | 8627 ft | 200 kts | 52° |
| 2026-04-26 10:10 | 55.69315 | 12.14546 | 9277 ft | 203 kts | 50° |
| 2026-04-26 10:10 | 55.70060 | 12.16712 | 9929 ft | 208 kts | 50° |
| 2026-04-26 10:10 | 55.70809 | 12.18927 | 10541 ft | 211 kts | 50° |
| 2026-04-26 10:11 | 55.71566 | 12.21165 | 11138 ft | 213 kts | 49° |
| 2026-04-26 10:11 | 55.72323 | 12.23395 | 11733 ft | 214 kts | 49° |
| 2026-04-26 10:11 | 55.73094 | 12.25663 | 12347 ft | 215 kts | 48° |
| 2026-04-26 10:11 | 55.73866 | 12.27952 | 12972 ft | 217 kts | 48° |
| 2026-04-26 10:12 | 55.74646 | 12.30254 | 13618 ft | 217 kts | 47° |
| 2026-04-26 10:12 | 55.75424 | 12.32558 | 14248 ft | 218 kts | 47° |
| 2026-04-26 10:12 | 55.76205 | 12.34869 | 14826 ft | 219 kts | 46° |
| 2026-04-26 10:12 | 55.76987 | 12.37190 | 15417 ft | 219 kts | 46° |
| 2026-04-26 10:13 | 55.77769 | 12.39515 | 16021 ft | 219 kts | 46° |
| 2026-04-26 10:13 | 55.78554 | 12.41844 | 16637 ft | 219 kts | 45° |
| 2026-04-26 10:13 | 55.79334 | 12.44164 | 17258 ft | 219 kts | 45° |
| 2026-04-26 10:13 | 55.80124 | 12.46506 | 17801 ft | 223 kts | 44° |
| 2026-04-26 10:14 | 55.80925 | 12.48897 | 18349 ft | 227 kts | 45° |
| 2026-04-26 10:14 | 55.81736 | 12.51324 | 18853 ft | 230 kts | 45° |
| 2026-04-26 10:14 | 55.82541 | 12.53731 | 19375 ft | 229 kts | 44° |
| 2026-04-26 10:14 | 55.83358 | 12.56171 | 19909 ft | 229 kts | 44° |
| 2026-04-26 10:15 | 55.84174 | 12.58608 | 20454 ft | 229 kts | 44° |
| 2026-04-26 10:15 | 55.84989 | 12.61048 | 21014 ft | 230 kts | 44° |
| 2026-04-26 10:15 | 55.85813 | 12.63514 | 21577 ft | 233 kts | 44° |
| 2026-04-26 10:15 | 55.86644 | 12.66011 | 22154 ft | 235 kts | 44° |
| 2026-04-26 10:16 | 55.87479 | 12.68527 | 22746 ft | 237 kts | 44° |
| 2026-04-26 10:16 | 55.88320 | 12.71056 | 23347 ft | 237 kts | 44° |
| 2026-04-26 10:16 | 55.89160 | 12.73583 | 23946 ft | 237 kts | 43° |
| 2026-04-26 10:16 | 55.89999 | 12.76114 | 24462 ft | 237 kts | 43° |
| 2026-04-26 10:17 | 55.90839 | 12.78645 | 24976 ft | 236 kts | 43° |
| 2026-04-26 10:17 | 55.91674 | 12.81167 | 25511 ft | 235 kts | 43° |
| 2026-04-26 10:17 | 55.92503 | 12.83674 | 26049 ft | 234 kts | 43° |
| 2026-04-26 10:17 | 55.93324 | 12.86161 | 26607 ft | 232 kts | 42° |
| 2026-04-26 10:18 | 55.94139 | 12.88628 | 27175 ft | 229 kts | 42° |
| 2026-04-26 10:18 | 55.94944 | 12.91069 | 27750 ft | 227 kts | 41° |
| 2026-04-26 10:18 | 55.95741 | 12.93485 | 28263 ft | 228 kts | 41° |
| 2026-04-26 10:18 | 55.96281 | 12.95104 | 28530 ft | 231 kts | 41° |
| 2026-04-26 10:19 | 55.97362 | 12.98417 | 29119 ft | 235 kts | 42° |
| 2026-04-26 10:19 | 55.98191 | 13.00947 | 29560 ft | 237 kts | 41° |
| 2026-04-26 10:19 | 55.99031 | 13.03494 | 30003 ft | 239 kts | 42° |
| 2026-04-26 10:19 | 55.99874 | 13.06070 | 30400 ft | 241 kts | 42° |
| 2026-04-26 10:20 | 56.00447 | 13.07824 | 30643 ft | 243 kts | 42° |
| 2026-04-26 10:20 | 56.01294 | 13.10406 | 30958 ft | 246 kts | 42° |
| 2026-04-26 10:20 | 56.02180 | 13.13100 | 31118 ft | 258 kts | 43° |
| 2026-04-26 10:20 | 56.03418 | 13.16914 | 31213 ft | 276 kts | 44° |
| 2026-04-26 10:21 | 56.06309 | 13.25806 | 31264 ft | 292 kts | 45° |
| 2026-04-26 10:21 | 56.07337 | 13.28971 | 31265 ft | 296 kts | 45° |
| 2026-04-26 10:22 | 56.08375 | 13.32174 | 31272 ft | 299 kts | 45° |
| 2026-04-26 10:22 | 56.09423 | 13.35408 | 31272 ft | 301 kts | 45° |
| 2026-04-26 10:22 | 56.11539 | 13.41960 | 31274 ft | 305 kts | 46° |
| 2026-04-26 10:23 | 56.12675 | 13.45118 | 31276 ft | 291 kts | 34° |
| 2026-04-26 10:23 | 56.14101 | 13.47453 | 31272 ft | 274 kts | 20° |
| 2026-04-26 10:23 | 56.15665 | 13.49348 | 31272 ft | 270 kts | 17° |
| 2026-04-26 10:24 | 56.18510 | 13.53078 | 31275 ft | 276 kts | 20° |